Main page
METAR-TAF:

METAR-TAF

Airports :

Voronezh International Airport

Voronezh, Russia

latitude: 51-39N, longitude: 039-15E, elevation: 154 m

Current weather observation

The report was made 34 minutes ago, at 10:00 UTC
Wind 12 kt from the West
Temperature 3°C
Humidity 81%
Pressure 1001 hPa
Visibility 10 km or more
Scattered clouds at a height of 1500 ft

METAR: UUOO 221000Z 28006MPS 9999 SCT015 03/M00 Q1001 R30/290150 NOSIG RMK QFE737

Time: 13:34 (10:34 UTC)

Forecast

The report was made 2 hours and 34 minutes ago, at 08:00 UTC
Forecast valid from 22 at 09 UTC to 22 at 18 UTC
Wind 14 kt from the West
Visibility 10 km or more
Broken clouds at a height of 1500 ft
Becoming
from 22 at 13 UTC to 22 at 15 UTC
Visibility: 4000 m
light snow, rain
Temporary
from 22 at 15 UTC to 22 at 18 UTC
Visibility: 1500 m
Broken clouds at a height of 600 ft
snow, rain

TAF: UUOO 220800Z 2209/2218 27007MPS 9999 BKN015 BECMG 2213/2215 4000 -SNRA TEMPO 2215/2218 1500 SNRA BKN006

Weather observations and forecasts of more than 4000 airports (METAR and TAF reports).

The available stations are represented by yellow and red dots on the map.

Hover mouse over dot to see the name of the station.

Then click to see weather observations and forecasts.

To change the map : click on the green buttons with a black cross to zoom in, on the green button with a dash to zoom out, or on the green arrows for adjacent maps.


METAR-TAF: